createdAt,value
2023-03-20T00:00:30.006Z,19.33
2023-03-20T00:02:57.710Z,19.32
2023-03-20T00:05:26.042Z,19.31
2023-03-20T00:07:53.751Z,19.30
2023-03-20T00:10:22.921Z,19.32
2023-03-20T00:12:51.721Z,19.35
2023-03-20T00:15:27.756Z,19.35
2023-03-20T00:17:55.498Z,19.35
2023-03-20T00:20:23.184Z,19.33
2023-03-20T00:22:51.208Z,19.32
2023-03-20T00:25:19.742Z,19.32
2023-03-20T00:27:48.871Z,19.31
2023-03-20T00:30:22.310Z,19.31
2023-03-20T00:32:50.455Z,19.30
2023-03-20T00:35:19.877Z,19.29
2023-03-20T00:37:47.604Z,19.26
2023-03-20T00:40:15.638Z,19.26
2023-03-20T00:42:43.812Z,19.26
2023-03-20T00:45:14.315Z,19.26
2023-03-20T00:47:41.999Z,19.23
2023-03-20T00:50:17.931Z,19.23
2023-03-20T00:52:45.629Z,19.24
2023-03-20T00:55:13.444Z,19.21
2023-03-20T00:57:43.556Z,19.21
2023-03-20T01:00:23.408Z,19.21
2023-03-20T01:02:51.252Z,19.19
2023-03-20T01:05:19.422Z,19.20
2023-03-20T01:07:47.224Z,19.19
2023-03-20T01:10:15.055Z,19.19
2023-03-20T01:12:42.924Z,19.18
2023-03-20T01:15:22.513Z,19.17
2023-03-20T01:17:50.333Z,19.18
2023-03-20T01:20:19.899Z,19.18
2023-03-20T01:22:47.588Z,19.16
2023-03-20T01:25:16.055Z,19.15
2023-03-20T01:27:44.616Z,19.16
2023-03-20T01:30:22.703Z,19.15
2023-03-20T01:32:50.943Z,19.13
2023-03-20T01:35:19.493Z,19.15
2023-03-20T01:37:48.105Z,19.13
2023-03-20T01:40:33.087Z,19.13
2023-03-20T01:43:01.587Z,19.12
2023-03-20T01:45:32.871Z,19.12
2023-03-20T01:48:00.555Z,19.09
2023-03-20T01:50:30.300Z,19.10
2023-03-20T01:53:11.119Z,19.10
2023-03-20T01:55:38.800Z,19.10
2023-03-20T01:58:08.514Z,19.08
2023-03-20T02:00:38.166Z,19.09
2023-03-20T02:03:06.945Z,19.08
2023-03-20T02:05:34.894Z,19.07
2023-03-20T02:08:10.561Z,19.06
2023-03-20T02:10:38.232Z,19.05
2023-03-20T02:13:05.923Z,19.04
2023-03-20T02:15:34.219Z,19.03
2023-03-20T02:18:03.717Z,19.04
2023-03-20T02:20:42.007Z,19.03
2023-03-20T02:23:50.969Z,19.03
2023-03-20T02:26:32.834Z,19.03
2023-03-20T02:29:54.600Z,19.03
2023-03-20T02:32:37.818Z,19.00
2023-03-20T02:35:59.370Z,19.00
2023-03-20T02:38:55.764Z,19.00
2023-03-20T02:41:25.364Z,18.98
2023-03-20T02:43:56.506Z,19.00
2023-03-20T02:46:28.866Z,19.00
2023-03-20T02:48:58.003Z,18.98
2023-03-20T02:51:28.891Z,18.97
2023-03-20T02:54:00.756Z,18.96
2023-03-20T02:56:31.528Z,18.96
2023-03-20T02:59:02.377Z,18.96
2023-03-20T03:01:33.179Z,18.98
2023-03-20T03:04:02.213Z,18.96
2023-03-20T03:06:31.579Z,18.97
2023-03-20T03:09:02.404Z,18.97
2023-03-20T03:11:30.547Z,18.98
2023-03-20T03:13:58.285Z,18.97
2023-03-20T03:16:27.689Z,18.97
2023-03-20T03:19:01.681Z,18.97
2023-03-20T03:21:29.867Z,18.96
2023-03-20T03:23:57.547Z,18.96
2023-03-20T03:26:27.782Z,18.97
2023-03-20T03:28:56.771Z,18.95
2023-03-20T03:31:24.624Z,18.95
2023-03-20T03:33:53.440Z,18.96
2023-03-20T03:36:26.960Z,18.95
2023-03-20T03:38:56.738Z,18.95
2023-03-20T03:41:28.863Z,18.94
2023-03-20T03:44:01.155Z,18.94
2023-03-20T03:46:34.041Z,18.92
2023-03-20T03:49:01.920Z,18.93
2023-03-20T03:51:30.560Z,18.91
2023-03-20T03:53:59.892Z,18.92
2023-03-20T03:56:29.457Z,18.91
2023-03-20T03:58:59.778Z,18.91
2023-03-20T04:01:27.559Z,18.91
2023-03-20T04:03:57.334Z,18.93
2023-03-20T04:06:25.903Z,18.92
2023-03-20T04:08:53.588Z,18.93
2023-03-20T04:11:22.289Z,18.92
2023-03-20T04:13:52.004Z,18.93
2023-03-20T04:16:20.624Z,18.94
2023-03-20T04:18:48.340Z,18.93
2023-03-20T04:21:16.778Z,18.93
2023-03-20T04:23:44.463Z,18.93
2023-03-20T04:26:12.196Z,18.94
2023-03-20T04:28:39.902Z,18.94
2023-03-20T04:31:09.153Z,18.92
2023-03-20T04:33:37.777Z,18.93
2023-03-20T04:36:06.461Z,18.94
2023-03-20T04:38:34.171Z,18.94
2023-03-20T04:41:01.869Z,18.94
2023-03-20T04:43:29.616Z,18.95
2023-03-20T04:45:57.364Z,18.95
2023-03-20T04:48:27.843Z,18.92
2023-03-20T04:50:55.580Z,18.92
2023-03-20T04:53:24.941Z,18.93
2023-03-20T04:55:54.367Z,18.93
2023-03-20T04:58:22.394Z,18.93
2023-03-20T05:00:50.177Z,18.92
2023-03-20T05:03:17.959Z,18.93
2023-03-20T05:05:46.988Z,18.94
2023-03-20T05:08:14.684Z,18.93
2023-03-20T05:10:42.352Z,18.91
2023-03-20T05:13:10.028Z,18.90
2023-03-20T05:15:37.808Z,18.88
2023-03-20T05:18:05.660Z,18.88
2023-03-20T05:20:33.393Z,18.89
2023-03-20T05:23:04.572Z,18.92
2023-03-20T05:25:34.547Z,18.91
2023-03-20T05:28:02.360Z,18.90
2023-03-20T05:30:30.051Z,18.90
2023-03-20T05:32:57.775Z,18.89
2023-03-20T05:35:25.511Z,18.90
2023-03-20T05:37:53.251Z,18.89
2023-03-20T05:40:24.160Z,18.90
2023-03-20T05:42:52.745Z,18.89
2023-03-20T05:45:20.608Z,18.90
2023-03-20T05:47:48.314Z,18.92
2023-03-20T05:50:16.207Z,18.94
2023-03-20T05:52:43.914Z,18.93
2023-03-20T05:55:12.048Z,18.94
2023-03-20T05:57:41.146Z,18.96
2023-03-20T06:00:10.301Z,18.98
2023-03-20T06:02:38.157Z,18.99
2023-03-20T06:05:06.315Z,19.00
2023-03-20T06:07:33.996Z,19.00
2023-03-20T06:10:01.669Z,19.01
2023-03-20T06:12:29.633Z,19.01
2023-03-20T06:14:58.693Z,19.01
2023-03-20T06:17:26.508Z,19.04
2023-03-20T06:19:54.244Z,19.03
2023-03-20T06:22:22.146Z,19.06
2023-03-20T06:24:49.856Z,19.04
2023-03-20T06:27:17.587Z,19.05
2023-03-20T06:29:45.263Z,19.05
2023-03-20T06:32:14.800Z,19.06
2023-03-20T06:34:42.678Z,19.09
2023-03-20T06:37:10.528Z,19.10
2023-03-20T06:39:38.199Z,19.10
2023-03-20T06:42:06.236Z,19.10
2023-03-20T06:44:33.940Z,19.09
2023-03-20T06:47:01.725Z,19.09
2023-03-20T06:49:30.772Z,19.09
2023-03-20T06:51:59.358Z,19.09
2023-03-20T06:54:27.205Z,19.11
2023-03-20T06:56:54.890Z,19.09
2023-03-20T06:59:23.620Z,19.11
2023-03-20T07:01:52.690Z,19.11
2023-03-20T07:04:20.607Z,19.11
2023-03-20T07:06:49.731Z,19.10
2023-03-20T07:09:18.532Z,19.11
2023-03-20T07:11:46.839Z,19.12
2023-03-20T07:14:14.974Z,19.11
2023-03-20T07:16:42.827Z,19.11
2023-03-20T07:19:11.222Z,19.12
2023-03-20T07:21:38.947Z,19.13
2023-03-20T07:24:08.316Z,19.15
2023-03-20T07:26:36.026Z,19.22
2023-03-20T07:29:03.849Z,19.29
2023-03-20T07:31:32.266Z,19.31
2023-03-20T07:33:59.983Z,19.33
2023-03-20T07:36:27.679Z,19.34
2023-03-20T07:38:55.529Z,19.35
2023-03-20T07:41:24.556Z,19.36
2023-03-20T07:43:52.242Z,19.38
2023-03-20T07:46:20.074Z,19.37
2023-03-20T07:48:47.784Z,19.37
2023-03-20T07:51:15.515Z,19.36
2023-03-20T07:53:43.229Z,19.37
2023-03-20T07:56:11.449Z,19.36
2023-03-20T07:58:40.543Z,19.35
2023-03-20T08:01:08.216Z,19.34
2023-03-20T08:03:35.964Z,19.33
2023-03-20T08:06:06.344Z,19.31
2023-03-20T08:08:34.505Z,19.31
2023-03-20T08:11:02.217Z,19.30
2023-03-20T08:13:29.943Z,19.30
2023-03-20T08:15:59.201Z,19.29
2023-03-20T08:18:26.899Z,19.30
2023-03-20T08:20:54.592Z,19.29
2023-03-20T08:23:22.406Z,19.30
2023-03-20T08:25:50.294Z,19.29
2023-03-20T08:28:17.976Z,19.28
2023-03-20T08:30:45.772Z,19.28
2023-03-20T08:33:15.028Z,19.27
2023-03-20T08:35:43.426Z,19.28
2023-03-20T08:38:11.585Z,19.26
2023-03-20T08:40:41.411Z,19.27
2023-03-20T08:43:09.301Z,19.27
2023-03-20T08:45:37.263Z,19.27
2023-03-20T08:48:05.305Z,19.29
2023-03-20T08:50:34.601Z,19.29
2023-03-20T08:53:02.379Z,19.30
2023-03-20T08:55:30.051Z,19.29
2023-03-20T08:57:58.245Z,19.28
2023-03-20T09:00:26.045Z,19.29
2023-03-20T09:02:53.956Z,19.28
2023-03-20T09:05:21.682Z,19.27
2023-03-20T09:07:51.382Z,19.29
2023-03-20T09:10:19.141Z,19.28
2023-03-20T09:12:46.838Z,19.30
2023-03-20T09:15:14.503Z,19.29
2023-03-20T09:17:42.608Z,19.30
2023-03-20T09:20:11.402Z,19.30
2023-03-20T09:22:41.116Z,19.30
2023-03-20T09:25:10.709Z,19.29
2023-03-20T09:27:38.414Z,19.29
2023-03-20T09:30:07.489Z,19.30
2023-03-20T09:32:35.527Z,19.29
2023-03-20T09:35:03.259Z,19.29
2023-03-20T09:37:31.011Z,19.29
2023-03-20T09:39:58.756Z,19.30
2023-03-20T09:42:33.988Z,19.30
2023-03-20T09:45:05.075Z,19.30
2023-03-20T09:47:34.766Z,19.30
2023-03-20T09:50:14.503Z,19.30
2023-03-20T09:52:43.287Z,19.31
2023-03-20T09:55:14.358Z,19.32
2023-03-20T09:57:44.371Z,19.33
2023-03-20T10:00:16.393Z,19.32
2023-03-20T10:02:47.777Z,19.31
2023-03-20T10:05:19.833Z,19.32
2023-03-20T10:07:47.535Z,19.33
2023-03-20T10:10:15.761Z,19.35
2023-03-20T10:12:54.334Z,19.36
2023-03-20T10:15:23.138Z,19.36
2023-03-20T10:17:55.201Z,19.36
2023-03-20T10:20:26.859Z,19.37
2023-03-20T10:22:55.801Z,19.38
2023-03-20T10:25:29.207Z,19.40
2023-03-20T10:27:59.982Z,19.40
2023-03-20T10:30:33.939Z,19.43
2023-03-20T10:33:09.035Z,19.42
2023-03-20T10:35:40.020Z,19.41
2023-03-20T10:38:24.929Z,19.40
2023-03-20T10:40:52.795Z,19.40
2023-03-20T10:43:22.498Z,19.41
2023-03-20T10:45:51.559Z,19.40
2023-03-20T10:48:22.630Z,19.38
2023-03-20T10:50:52.415Z,19.40
2023-03-20T10:53:28.042Z,19.41
2023-03-20T10:55:58.426Z,19.41
2023-03-20T10:58:27.940Z,19.41
2023-03-20T11:00:56.139Z,19.44
2023-03-20T11:03:24.790Z,19.47
2023-03-20T11:06:08.480Z,19.49
2023-03-20T11:08:38.289Z,19.55
2023-03-20T11:11:06.596Z,19.60
2023-03-20T11:13:36.472Z,19.67
2023-03-20T11:16:19.493Z,19.76
2023-03-20T11:18:50.073Z,19.84
2023-03-20T11:21:23.092Z,19.93
2023-03-20T11:23:50.871Z,20.01
2023-03-20T11:26:19.059Z,20.07
2023-03-20T11:28:52.717Z,20.13
2023-03-20T11:31:22.455Z,20.20
2023-03-20T11:33:53.095Z,20.27
2023-03-20T11:36:27.881Z,20.32
2023-03-20T11:38:59.706Z,20.37
2023-03-20T11:41:28.806Z,20.40
2023-03-20T11:43:58.687Z,20.45
2023-03-20T11:46:26.747Z,20.49
2023-03-20T11:49:07.914Z,20.54
2023-03-20T11:51:36.462Z,20.56
2023-03-20T11:54:04.990Z,20.59
2023-03-20T11:56:33.684Z,20.60
2023-03-20T11:59:04.205Z,20.60
2023-03-20T12:01:39.162Z,20.60
2023-03-20T12:04:08.264Z,20.60
2023-03-20T12:06:42.710Z,20.59
2023-03-20T12:09:13.724Z,20.58
2023-03-20T12:11:47.576Z,20.58
2023-03-20T12:14:24.774Z,20.59
2023-03-20T12:16:54.834Z,20.60
2023-03-20T12:19:24.869Z,20.59
2023-03-20T12:21:55.340Z,20.58
2023-03-20T12:24:28.153Z,20.57
2023-03-20T12:26:57.766Z,20.57
2023-03-20T12:29:29.962Z,20.58
2023-03-20T12:31:59.440Z,20.57
2023-03-20T12:34:29.035Z,20.56
2023-03-20T12:36:57.493Z,20.56
2023-03-20T12:39:28.208Z,20.55
2023-03-20T12:42:06.795Z,20.54
2023-03-20T12:44:39.376Z,20.52
2023-03-20T12:47:14.692Z,20.52
2023-03-20T12:49:46.611Z,20.52
2023-03-20T12:52:16.613Z,20.51
2023-03-20T12:54:56.774Z,20.53
2023-03-20T12:57:26.828Z,20.52
2023-03-20T13:00:05.526Z,20.52
2023-03-20T13:02:36.365Z,20.53
2023-03-20T13:05:12.072Z,20.52
2023-03-20T13:07:47.341Z,20.54
2023-03-20T13:10:20.644Z,20.55
2023-03-20T13:12:53.623Z,20.55
2023-03-20T13:15:28.193Z,20.55
2023-03-20T13:17:59.614Z,20.56
2023-03-20T13:20:28.224Z,20.58
2023-03-20T13:23:01.060Z,20.59
2023-03-20T13:25:46.761Z,20.60
2023-03-20T13:28:16.923Z,20.60
2023-03-20T13:30:49.008Z,20.61
2023-03-20T13:33:24.272Z,20.64
2023-03-20T13:35:53.881Z,20.65
2023-03-20T13:38:22.684Z,20.65
2023-03-20T13:40:51.956Z,20.66
2023-03-20T13:43:25.443Z,20.67
2023-03-20T13:45:57.561Z,20.67
2023-03-20T13:48:30.938Z,20.66
2023-03-20T13:51:02.419Z,20.66
2023-03-20T13:53:31.380Z,20.68
2023-03-20T13:56:03.512Z,20.64
2023-03-20T13:58:44.023Z,20.65
2023-03-20T14:01:15.929Z,20.65
2023-03-20T14:03:45.509Z,20.66
2023-03-20T14:06:18.944Z,20.68
2023-03-20T14:08:49.241Z,20.67
2023-03-20T14:11:32.525Z,20.66
2023-03-20T14:14:01.933Z,20.65
2023-03-20T14:16:30.964Z,20.65
2023-03-20T14:19:11.098Z,20.66
2023-03-20T14:21:40.591Z,20.64
2023-03-20T14:24:09.141Z,20.64
2023-03-20T14:26:37.894Z,20.65
2023-03-20T14:29:22.980Z,20.67
2023-03-20T14:31:52.251Z,20.67
2023-03-20T14:34:23.308Z,20.69
2023-03-20T14:36:58.440Z,20.69
2023-03-20T14:39:44.606Z,20.69
2023-03-20T14:42:28.097Z,20.67
2023-03-20T14:45:07.543Z,20.67
2023-03-20T14:47:40.079Z,20.65
2023-03-20T14:50:11.560Z,20.63
2023-03-20T14:52:47.335Z,20.61
2023-03-20T14:55:27.980Z,20.60
2023-03-20T14:57:57.320Z,20.60
2023-03-20T15:00:26.136Z,20.59
2023-03-20T15:03:06.270Z,20.57
2023-03-20T15:05:34.966Z,20.59
2023-03-20T15:08:05.487Z,20.58
2023-03-20T15:10:33.527Z,20.58
2023-03-20T15:13:01.199Z,20.58
2023-03-20T15:15:31.543Z,20.58
2023-03-20T15:18:06.245Z,20.57
2023-03-20T15:20:36.745Z,20.56
2023-03-20T15:23:04.965Z,20.56
2023-03-20T15:25:34.052Z,20.55
2023-03-20T15:28:05.708Z,20.56
2023-03-20T15:30:34.174Z,20.55
2023-03-20T15:33:01.994Z,20.54
2023-03-20T15:35:31.288Z,20.52
2023-03-20T15:37:59.700Z,20.51
2023-03-20T15:40:37.129Z,20.52
2023-03-20T15:43:13.921Z,20.51
2023-03-20T15:45:43.284Z,20.51
2023-03-20T15:48:15.337Z,20.50
2023-03-20T15:50:46.152Z,20.49
2023-03-20T15:53:17.963Z,20.50
2023-03-20T15:55:48.877Z,20.51
2023-03-20T15:58:16.627Z,20.51
2023-03-20T16:00:45.629Z,20.53
2023-03-20T16:03:16.939Z,20.52
2023-03-20T16:05:46.489Z,20.52
2023-03-20T16:08:14.665Z,20.51
2023-03-20T16:10:42.926Z,20.50
2023-03-20T16:13:12.688Z,20.50
2023-03-20T16:15:40.619Z,20.51
2023-03-20T16:18:08.507Z,20.51
2023-03-20T16:20:37.512Z,20.51
2023-03-20T16:23:07.820Z,20.51
2023-03-20T16:25:35.606Z,20.51
2023-03-20T16:28:03.376Z,20.51
2023-03-20T16:30:31.904Z,20.50
2023-03-20T16:33:01.049Z,20.51
2023-03-20T16:35:31.069Z,20.49
2023-03-20T16:37:59.381Z,20.50
2023-03-20T16:40:33.041Z,20.50
2023-03-20T16:43:06.740Z,20.50
2023-03-20T16:45:35.319Z,20.49
2023-03-20T16:48:31.491Z,20.50
2023-03-20T16:51:00.942Z,20.49
2023-03-20T16:53:29.937Z,20.48
2023-03-20T16:55:59.390Z,20.49
2023-03-20T16:58:29.578Z,20.49
2023-03-20T17:00:59.634Z,20.47
2023-03-20T17:03:28.418Z,20.48
2023-03-20T17:05:57.353Z,20.45
2023-03-20T17:08:30.543Z,20.47
2023-03-20T17:11:01.546Z,20.46
2023-03-20T17:13:29.284Z,20.46
2023-03-20T17:15:56.975Z,20.47
2023-03-20T17:18:24.778Z,20.47
2023-03-20T17:20:52.572Z,20.48
2023-03-20T17:23:21.682Z,20.47
2023-03-20T17:25:50.048Z,20.48
2023-03-20T17:28:21.309Z,20.48
2023-03-20T17:30:50.239Z,20.49
2023-03-20T17:33:19.034Z,20.50
2023-03-20T17:35:47.744Z,20.50
2023-03-20T17:38:19.788Z,20.50
2023-03-20T17:40:47.499Z,20.52
2023-03-20T17:43:15.610Z,20.52
2023-03-20T17:45:44.691Z,20.51
2023-03-20T17:48:16.599Z,20.54
2023-03-20T17:50:45.317Z,20.53
2023-03-20T17:53:17.243Z,20.53
2023-03-20T17:55:45.044Z,20.55
2023-03-20T17:58:20.930Z,20.54
2023-03-20T18:00:50.054Z,20.54
2023-03-20T18:03:18.170Z,20.55
2023-03-20T18:05:46.440Z,20.53
2023-03-20T18:08:14.932Z,20.54
2023-03-20T18:10:42.800Z,20.54
2023-03-20T18:13:10.565Z,20.55
2023-03-20T18:15:40.269Z,20.56
2023-03-20T18:18:09.581Z,20.55
2023-03-20T18:20:38.545Z,20.55
2023-03-20T18:23:06.450Z,20.56
2023-03-20T18:25:34.288Z,20.57
2023-03-20T18:28:02.631Z,20.56
2023-03-20T18:30:31.567Z,20.56
2023-03-20T18:32:59.239Z,20.56
2023-03-20T18:35:28.347Z,20.57
2023-03-20T18:37:56.153Z,20.58
2023-03-20T18:40:26.080Z,20.59
2023-03-20T18:42:54.003Z,20.59
2023-03-20T18:45:22.378Z,20.58
2023-03-20T18:47:50.188Z,20.59
2023-03-20T18:50:24.634Z,20.59
2023-03-20T18:52:54.016Z,20.58
2023-03-20T18:55:22.920Z,20.59
2023-03-20T18:57:50.816Z,20.58
2023-03-20T19:00:21.840Z,20.60
2023-03-20T19:02:49.768Z,20.60
2023-03-20T19:05:18.209Z,20.60
2023-03-20T19:07:46.002Z,20.60
2023-03-20T19:10:24.655Z,20.60
2023-03-20T19:12:52.500Z,20.60
2023-03-20T19:15:20.521Z,20.61
2023-03-20T19:17:48.299Z,20.61
2023-03-20T19:20:33.831Z,20.60
2023-03-20T19:23:02.601Z,20.61
2023-03-20T19:25:32.017Z,20.61
2023-03-20T19:27:59.775Z,20.61
2023-03-20T19:30:29.972Z,20.61
2023-03-20T19:32:58.227Z,20.60
2023-03-20T19:36:01.034Z,20.61
2023-03-20T19:38:15.193Z,20.61
2023-03-20T19:40:44.881Z,20.60
2023-03-20T19:43:12.602Z,20.61
2023-03-20T19:45:41.443Z,20.60
2023-03-20T19:48:14.084Z,20.60
2023-03-20T19:50:43.754Z,20.61
2023-03-20T19:53:12.417Z,20.60
2023-03-20T19:55:40.497Z,20.59
2023-03-20T19:58:09.661Z,20.60
2023-03-20T20:03:26.476Z,20.60
2023-03-20T20:05:54.281Z,20.60
2023-03-20T20:08:44.765Z,20.59
2023-03-20T20:11:11.865Z,20.60
2023-03-20T20:14:03.833Z,20.59
2023-03-20T20:16:29.243Z,20.61
2023-03-20T20:18:57.052Z,20.61
2023-03-20T20:24:12.640Z,20.62
2023-03-20T20:26:49.452Z,20.61
2023-03-20T20:29:24.393Z,20.61
2023-03-20T20:31:52.232Z,20.60
2023-03-20T20:39:56.019Z,20.62
2023-03-20T20:42:23.776Z,20.61
2023-03-20T20:44:52.851Z,20.61
2023-03-20T20:47:21.244Z,20.61
2023-03-20T20:49:49.033Z,20.60
2023-03-20T20:52:17.464Z,20.61
2023-03-20T20:54:45.175Z,20.60
2023-03-20T20:57:12.929Z,20.61
2023-03-20T20:59:41.119Z,20.61
2023-03-20T21:02:11.864Z,20.60
2023-03-20T21:04:40.098Z,20.63
2023-03-20T21:07:10.616Z,20.63
2023-03-20T21:09:39.402Z,20.63
2023-03-20T21:12:08.250Z,20.65
2023-03-20T21:14:36.184Z,20.65
2023-03-20T21:17:03.974Z,20.65
2023-03-20T21:19:36.167Z,20.65
2023-03-20T21:22:04.338Z,20.66
2023-03-20T21:24:34.543Z,20.66
2023-03-20T21:27:02.581Z,20.66
2023-03-20T21:29:30.704Z,20.66
2023-03-20T21:31:58.511Z,20.67
2023-03-20T21:34:26.416Z,20.66
2023-03-20T21:36:56.113Z,20.67
2023-03-20T21:39:25.035Z,20.67
2023-03-20T21:41:52.861Z,20.66
2023-03-20T21:44:57.419Z,20.66
2023-03-20T21:50:45.922Z,20.63
2023-03-20T21:53:23.990Z,20.64
2023-03-20T21:59:02.942Z,20.63
2023-03-20T22:10:37.600Z,20.61
2023-03-20T22:18:50.918Z,20.61
2023-03-20T22:21:36.471Z,20.61
2023-03-20T22:24:21.140Z,20.60
2023-03-20T22:29:52.453Z,20.61
2023-03-20T22:32:41.072Z,20.60
2023-03-20T22:44:24.875Z,20.60
2023-03-20T22:46:16.826Z,20.61
2023-03-20T22:48:48.784Z,20.61
2023-03-20T22:51:18.270Z,20.61
2023-03-20T22:53:46.074Z,20.60
2023-03-20T22:56:13.809Z,20.60
2023-03-20T22:58:42.859Z,20.59
2023-03-20T23:01:10.705Z,20.59
2023-03-20T23:03:41.895Z,20.59
2023-03-20T23:06:10.892Z,20.60
2023-03-20T23:08:49.211Z,20.60
2023-03-20T23:11:22.365Z,20.59
2023-03-20T23:13:51.781Z,20.61
2023-03-20T23:16:19.576Z,20.62
2023-03-20T23:18:47.278Z,20.62
2023-03-20T23:21:14.959Z,20.62
2023-03-20T23:23:42.652Z,20.64
2023-03-20T23:26:11.321Z,20.65
2023-03-20T23:28:39.361Z,20.64
2023-03-20T23:31:11.118Z,20.64
2023-03-20T23:33:39.257Z,20.64
2023-03-20T23:36:19.014Z,20.65
2023-03-20T23:38:55.475Z,20.64
2023-03-20T23:41:49.351Z,20.65
2023-03-20T23:44:10.869Z,20.65
2023-03-20T23:46:39.909Z,20.65
2023-03-20T23:49:07.626Z,20.67
2023-03-20T23:51:35.416Z,20.66
2023-03-20T23:54:03.117Z,20.66
2023-03-20T23:56:30.910Z,20.66
2023-03-20T23:59:08.069Z,20.67
